Time;durP1;ratioP1;P1;durP2;ratioP2;P2;SDS_P1;SDS_P2;PMS_P1;PMS_P2;Temp;Humidity;BMP_temperature;BMP_pressure;BME280_temperature;BME280_humidity;BME280_pressure;Samples;Min_cycle;Max_cycle;Signal;HPM_P1;HPM_P2
2023/12/23 00:00:37;;;;;;;1.90;0.60;;;1.90;99.90;;;;;;5116084;28;20490;-61
2023/12/23 00:03:05;;;;;;;1.10;0.60;;;1.90;99.90;;;;;;5116363;28;20468;-61
2023/12/23 00:05:32;;;;;;;0.70;0.50;;;1.90;99.90;;;;;;5117044;28;20456;-62
2023/12/23 00:08:00;;;;;;;1.00;0.70;;;1.90;99.90;;;;;;5116388;28;20488;-62
2023/12/23 00:10:27;;;;;;;1.17;0.60;;;2.00;99.90;;;;;;5115971;28;20441;-63
2023/12/23 00:12:54;;;;;;;0.80;0.50;;;1.90;99.90;;;;;;5114600;28;20472;-63
2023/12/23 00:15:20;;;;;;;0.73;0.50;;;1.90;99.90;;;;;;5115618;28;20443;-62
2023/12/23 00:17:50;;;;;;;2.90;1.03;;;1.90;99.90;;;;;;5116235;28;20468;-63
2023/12/23 00:20:17;;;;;;;7.83;0.60;;;1.90;99.90;;;;;;5115912;28;20448;-62
2023/12/23 00:22:44;;;;;;;0.80;0.50;;;1.90;99.90;;;;;;5114761;28;20471;-64
2023/12/23 00:25:10;;;;;;;0.77;0.60;;;1.90;99.90;;;;;;5114491;28;20417;-63
2023/12/23 00:27:37;;;;;;;1.10;0.70;;;1.90;99.90;;;;;;5114628;28;20518;-62
2023/12/23 00:30:05;;;;;;;1.73;0.70;;;1.90;99.90;;;;;;5116577;28;20412;-63
2023/12/23 00:32:32;;;;;;;1.13;0.63;;;2.00;99.90;;;;;;5115891;28;20472;-62
2023/12/23 00:35:00;;;;;;;0.80;0.60;;;1.90;99.90;;;;;;5115742;28;20441;-62
2023/12/23 00:37:27;;;;;;;0.80;0.60;;;2.00;99.90;;;;;;5115272;28;20447;-63
2023/12/23 00:39:54;;;;;;;1.20;0.70;;;2.10;99.90;;;;;;5113946;28;20417;-64
2023/12/23 00:42:21;;;;;;;1.30;0.97;;;2.10;99.90;;;;;;5112329;28;20441;-63
2023/12/23 00:44:48;;;;;;;1.13;0.77;;;2.20;99.90;;;;;;5111964;28;20460;-63
2023/12/23 00:47:15;;;;;;;2.93;1.00;;;2.20;99.90;;;;;;5111385;28;20510;-63
2023/12/23 00:49:44;;;;;;;1.10;0.60;;;2.20;99.90;;;;;;5102659;28;20451;-64
2023/12/23 00:52:12;;;;;;;0.90;0.60;;;2.30;99.90;;;;;;5102713;28;20448;-62
2023/12/23 00:54:39;;;;;;;0.77;0.60;;;2.20;99.90;;;;;;5101375;28;20455;-63
2023/12/23 00:57:06;;;;;;;1.73;1.00;;;2.20;99.90;;;;;;5099122;28;20436;-63
2023/12/23 00:59:33;;;;;;;1.40;0.70;;;2.10;99.90;;;;;;5098747;28;20476;-63
2023/12/23 01:02:00;;;;;;;1.27;1.07;;;2.10;99.90;;;;;;5098371;28;20512;-63
2023/12/23 01:04:27;;;;;;;1.73;0.87;;;2.10;99.90;;;;;;5098189;28;20558;-63
2023/12/23 01:06:54;;;;;;;3.43;0.87;;;2.20;99.90;;;;;;5098248;28;20487;-63
2023/12/23 01:09:22;;;;;;;1.63;0.83;;;2.20;99.90;;;;;;5097854;28;21038;-62
2023/12/23 01:11:49;;;;;;;1.43;0.87;;;2.20;99.90;;;;;;5102114;28;20772;-63
2023/12/23 01:14:16;;;;;;;1.87;1.67;;;2.20;99.90;;;;;;5106678;28;20468;-63
2023/12/23 01:16:44;;;;;;;1.00;0.53;;;2.10;99.90;;;;;;5108927;28;20479;-64
2023/12/23 01:19:10;;;;;;;6.20;0.93;;;2.10;99.90;;;;;;5103706;28;20491;-64
2023/12/23 01:21:37;;;;;;;3.60;0.93;;;2.10;99.90;;;;;;5102639;28;20492;-63
2023/12/23 01:24:05;;;;;;;0.80;0.60;;;2.10;99.90;;;;;;5102590;28;20550;-63
2023/12/23 01:26:33;;;;;;;1.90;0.70;;;2.10;99.90;;;;;;5103210;28;20487;-63
2023/12/23 01:29:00;;;;;;;2.30;1.03;;;2.10;99.90;;;;;;5105788;28;20487;-63
2023/12/23 01:31:27;;;;;;;1.70;1.13;;;2.10;99.90;;;;;;5115238;28;20444;-63
2023/12/23 01:33:54;;;;;;;1.53;0.63;;;2.20;99.90;;;;;;5120201;28;20487;-63
2023/12/23 01:36:21;;;;;;;3.37;1.93;;;2.20;99.90;;;;;;5119639;28;20447;-62
2023/12/23 01:38:51;;;;;;;3.23;0.83;;;2.30;99.90;;;;;;5120420;28;20465;-62
2023/12/23 01:41:18;;;;;;;1.27;0.60;;;2.30;99.90;;;;;;5120663;28;20430;-61
2023/12/23 01:43:46;;;;;;;2.70;0.90;;;2.30;99.90;;;;;;5120454;28;20456;-62
2023/12/23 01:46:13;;;;;;;1.70;1.00;;;2.30;99.90;;;;;;5121078;28;20434;-62
2023/12/23 01:48:43;;;;;;;1.40;0.67;;;2.30;99.90;;;;;;5120089;28;20486;-63
2023/12/23 01:51:11;;;;;;;0.80;0.50;;;2.20;99.90;;;;;;5119622;28;20436;-63
2023/12/23 01:53:38;;;;;;;3.57;0.83;;;2.20;99.90;;;;;;5119802;28;20479;-63
2023/12/23 01:56:06;;;;;;;1.87;0.90;;;2.20;99.90;;;;;;5117497;28;20429;-62
2023/12/23 01:58:32;;;;;;;4.00;0.90;;;2.20;99.90;;;;;;5114298;28;20484;-64
2023/12/23 02:01:00;;;;;;;1.17;0.70;;;2.20;99.90;;;;;;5109894;28;21078;-62
2023/12/23 02:03:28;;;;;;;1.10;0.60;;;2.30;99.90;;;;;;5109168;28;20454;-62
2023/12/23 02:05:55;;;;;;;1.40;1.03;;;2.30;99.90;;;;;;5109030;28;20442;-63
2023/12/23 02:08:23;;;;;;;2.40;0.83;;;2.40;99.90;;;;;;5109308;28;20815;-63
2023/12/23 02:10:58;;;;;;;6.67;1.63;;;2.40;99.90;;;;;;5108191;28;20444;-62
2023/12/23 02:13:27;;;;;;;0.80;0.60;;;2.40;99.90;;;;;;5104112;28;20452;-63
2023/12/23 02:15:54;;;;;;;1.27;0.60;;;2.40;99.90;;;;;;5104601;28;20504;-62
2023/12/23 02:18:23;;;;;;;2.60;1.27;;;2.30;99.90;;;;;;5103707;28;20911;-63
2023/12/23 02:20:52;;;;;;;0.90;0.70;;;2.40;99.90;;;;;;5102409;28;20448;-62
2023/12/23 02:23:19;;;;;;;2.13;1.00;;;2.40;99.90;;;;;;5101002;28;20482;-63
2023/12/23 02:25:51;;;;;;;0.80;0.60;;;2.40;99.90;;;;;;5102401;28;20458;-63
2023/12/23 02:28:21;;;;;;;2.93;0.90;;;2.30;99.90;;;;;;5103038;28;20460;-63
2023/12/23 02:30:51;;;;;;;1.13;0.60;;;2.30;99.90;;;;;;5104244;28;20512;-63
2023/12/23 02:33:18;;;;;;;3.80;0.90;;;2.30;99.90;;;;;;5103416;28;20441;-62
2023/12/23 02:35:45;;;;;;;1.33;1.23;;;2.40;99.90;;;;;;5103156;28;20551;-63
2023/12/23 02:38:13;;;;;;;2.10;0.60;;;2.30;99.90;;;;;;5103427;28;20448;-64
2023/12/23 02:40:40;;;;;;;2.10;0.87;;;2.30;99.90;;;;;;5103297;28;20479;-64
2023/12/23 02:43:07;;;;;;;1.40;0.80;;;2.30;99.90;;;;;;5103705;28;20468;-62
2023/12/23 02:45:34;;;;;;;1.37;0.70;;;2.30;99.90;;;;;;5106283;28;20487;-62
2023/12/23 02:48:01;;;;;;;2.40;0.57;;;2.30;99.90;;;;;;5107831;28;20491;-64
2023/12/23 02:50:28;;;;;;;1.83;1.00;;;2.20;99.90;;;;;;5107610;28;20806;-62
2023/12/23 02:52:54;;;;;;;1.43;0.70;;;2.20;99.90;;;;;;5115408;28;20451;-62
2023/12/23 02:55:23;;;;;;;1.73;1.43;;;2.20;99.90;;;;;;5114923;28;20473;-64
2023/12/23 02:57:49;;;;;;;0.80;0.70;;;2.30;99.90;;;;;;5115482;28;20453;-64
2023/12/23 03:00:17;;;;;;;1.93;0.70;;;2.30;99.90;;;;;;5114305;28;20518;-64
2023/12/23 03:02:44;;;;;;;2.40;0.70;;;2.30;99.90;;;;;;5114899;28;20451;-63
2023/12/23 03:05:11;;;;;;;1.40;0.80;;;2.30;99.90;;;;;;5115966;28;20467;-63
2023/12/23 03:07:40;;;;;;;4.00;0.90;;;2.30;99.90;;;;;;5117114;28;20461;-63
2023/12/23 03:10:08;;;;;;;2.43;0.70;;;2.30;99.90;;;;;;5117479;28;20470;-63
2023/12/23 03:12:37;;;;;;;1.57;0.97;;;2.30;99.90;;;;;;5117469;28;20462;-63
2023/12/23 03:15:04;;;;;;;0.80;0.60;;;2.30;99.90;;;;;;5118849;28;20474;-62
2023/12/23 03:17:31;;;;;;;2.73;0.67;;;2.30;99.90;;;;;;5118676;28;20459;-62
2023/12/23 03:19:58;;;;;;;2.23;0.60;;;2.30;99.90;;;;;;5118783;28;20489;-61
2023/12/23 03:22:25;;;;;;;1.73;0.90;;;2.20;99.90;;;;;;5119009;28;20459;-62
2023/12/23 03:24:52;;;;;;;0.93;0.60;;;2.20;99.90;;;;;;5118796;28;20468;-64
2023/12/23 03:27:21;;;;;;;2.30;0.70;;;2.20;99.90;;;;;;5118536;28;20440;-63
2023/12/23 03:29:50;;;;;;;4.37;0.77;;;2.10;99.90;;;;;;5117748;28;20496;-62
2023/12/23 03:32:16;;;;;;;2.60;0.60;;;2.10;99.90;;;;;;5117891;28;20440;-63
2023/12/23 03:34:43;;;;;;;2.70;0.70;;;2.10;99.90;;;;;;5116809;28;20439;-62
2023/12/23 03:37:10;;;;;;;0.80;0.60;;;2.10;99.90;;;;;;5117599;28;20454;-62
2023/12/23 03:39:37;;;;;;;6.10;1.00;;;2.20;99.90;;;;;;5117319;28;20437;-63
2023/12/23 03:42:04;;;;;;;1.00;0.67;;;2.10;99.90;;;;;;5117951;28;20439;-64
2023/12/23 03:44:31;;;;;;;2.10;1.43;;;2.10;99.90;;;;;;5117266;28;20445;-62
2023/12/23 03:46:59;;;;;;;1.83;0.83;;;2.20;99.90;;;;;;5117412;28;20485;-62
2023/12/23 03:49:26;;;;;;;0.90;0.70;;;2.20;99.90;;;;;;5116840;28;20483;-63
2023/12/23 03:51:53;;;;;;;0.80;0.60;;;2.20;99.90;;;;;;5115903;28;20761;-62
2023/12/23 03:54:20;;;;;;;1.70;0.63;;;2.30;99.90;;;;;;5116739;28;20455;-63
2023/12/23 03:56:46;;;;;;;1.97;1.10;;;2.30;99.90;;;;;;5117370;28;20492;-63
2023/12/23 03:59:13;;;;;;;0.90;0.63;;;2.30;99.90;;;;;;5117649;28;20446;-62
2023/12/23 04:01:42;;;;;;;1.53;0.53;;;2.30;99.90;;;;;;5118633;28;20452;-63
2023/12/23 04:04:10;;;;;;;5.13;0.90;;;2.40;99.90;;;;;;5117461;28;20463;-62
2023/12/23 04:06:37;;;;;;;0.80;0.50;;;2.40;99.90;;;;;;5116296;28;20424;-60
2023/12/23 04:09:04;;;;;;;9.53;2.00;;;2.40;99.90;;;;;;5116331;28;20491;-63
2023/12/23 04:11:31;;;;;;;2.17;1.53;;;2.40;99.90;;;;;;5116232;28;20472;-61
2023/12/23 04:13:58;;;;;;;7.07;2.80;;;2.40;99.90;;;;;;5116003;28;20435;-63
2023/12/23 04:16:24;;;;;;;3.53;1.27;;;2.40;99.90;;;;;;5114500;28;20477;-63
2023/12/23 04:18:51;;;;;;;2.60;0.80;;;2.50;99.90;;;;;;5114166;28;20436;-64
2023/12/23 04:21:22;;;;;;;5.40;1.07;;;2.40;99.90;;;;;;5113635;28;20496;-62
2023/12/23 04:23:49;;;;;;;2.70;1.00;;;2.40;99.90;;;;;;5114554;28;20416;-62
2023/12/23 04:26:17;;;;;;;1.60;1.17;;;2.50;99.90;;;;;;5115185;28;20452;-64
2023/12/23 04:28:44;;;;;;;3.33;1.63;;;2.50;99.90;;;;;;5114850;28;20480;-63
2023/12/23 04:31:11;;;;;;;2.17;0.90;;;2.50;99.90;;;;;;5115206;28;20498;-63
2023/12/23 04:33:38;;;;;;;3.80;0.90;;;2.50;99.90;;;;;;5115319;28;20441;-63
2023/12/23 04:36:06;;;;;;;1.40;1.10;;;2.50;99.90;;;;;;5114906;28;20452;-63
2023/12/23 04:38:35;;;;;;;7.90;1.77;;;2.50;99.90;;;;;;5113600;28;20464;-62
2023/12/23 04:41:02;;;;;;;4.00;1.63;;;2.50;99.90;;;;;;5113877;28;20492;-63
2023/12/23 04:43:31;;;;;;;10.50;1.10;;;2.50;99.90;;;;;;5114169;28;20891;-63
2023/12/23 04:45:58;;;;;;;10.03;1.40;;;2.50;99.90;;;;;;5117392;28;20472;-63
2023/12/23 04:48:25;;;;;;;2.40;0.90;;;2.50;99.90;;;;;;5118984;28;21018;-61
2023/12/23 04:50:52;;;;;;;1.43;0.90;;;2.60;99.90;;;;;;5119919;28;20450;-62
2023/12/23 04:53:22;;;;;;;2.00;0.73;;;2.60;99.90;;;;;;5120277;28;20440;-62
2023/12/23 04:55:50;;;;;;;1.47;0.70;;;2.60;99.90;;;;;;5119958;28;20439;-64
2023/12/23 04:58:17;;;;;;;8.83;1.27;;;2.60;99.90;;;;;;5119830;28;20427;-62
2023/12/23 05:00:44;;;;;;;6.57;1.17;;;2.60;99.90;;;;;;5118497;28;20444;-63
2023/12/23 05:03:11;;;;;;;4.30;1.10;;;2.70;99.90;;;;;;5118171;28;20464;-63
2023/12/23 05:05:38;;;;;;;6.40;1.70;;;2.70;99.90;;;;;;5118647;28;20451;-61
2023/12/23 05:08:06;;;;;;;5.03;1.40;;;2.70;99.90;;;;;;5119397;28;20447;-62
2023/12/23 05:10:33;;;;;;;1.63;0.93;;;2.70;99.90;;;;;;5118775;28;20488;-63
2023/12/23 05:13:01;;;;;;;7.60;1.93;;;2.70;99.90;;;;;;5119577;28;20444;-63
2023/12/23 05:15:28;;;;;;;11.00;2.97;;;2.80;99.90;;;;;;5118785;28;20464;-63
2023/12/23 05:17:55;;;;;;;4.87;1.57;;;2.70;99.90;;;;;;5118810;28;20483;-63
2023/12/23 05:20:23;;;;;;;1.33;1.13;;;2.70;99.90;;;;;;5119473;28;20444;-64
2023/12/23 05:22:50;;;;;;;5.07;1.37;;;2.80;99.90;;;;;;5119377;28;20448;-63
2023/12/23 05:25:17;;;;;;;1.27;0.90;;;2.80;99.90;;;;;;5118953;28;20451;-62
2023/12/23 05:27:44;;;;;;;2.30;1.17;;;2.80;99.90;;;;;;5118756;28;20460;-63
2023/12/23 05:30:13;;;;;;;3.80;1.00;;;2.80;99.90;;;;;;5118613;28;20487;-64
2023/12/23 05:32:40;;;;;;;0.83;0.70;;;2.80;99.90;;;;;;5119398;28;20469;-62
2023/12/23 05:35:07;;;;;;;2.50;0.80;;;2.80;99.90;;;;;;5118151;28;20456;-63
2023/12/23 05:37:34;;;;;;;7.40;0.93;;;2.80;99.90;;;;;;5116649;28;20476;-64
2023/12/23 05:40:01;;;;;;;14.37;1.73;;;2.80;99.90;;;;;;5116831;28;20444;-65
2023/12/23 05:42:28;;;;;;;2.90;1.00;;;2.80;99.90;;;;;;5118784;28;20498;-62
2023/12/23 05:44:55;;;;;;;2.90;0.77;;;2.90;99.90;;;;;;5118398;28;20456;-64
2023/12/23 05:47:23;;;;;;;4.70;1.17;;;2.90;99.90;;;;;;5118693;28;20496;-63
2023/12/23 05:49:50;;;;;;;5.10;1.57;;;2.90;99.90;;;;;;5118510;28;20484;-64
2023/12/23 05:52:17;;;;;;;5.10;1.17;;;2.90;99.90;;;;;;5118288;28;20471;-64
2023/12/23 05:54:43;;;;;;;14.73;1.17;;;2.90;99.90;;;;;;5117962;28;20515;-64
2023/12/23 05:57:10;;;;;;;1.73;0.87;;;2.90;99.90;;;;;;5117876;28;20493;-63
2023/12/23 05:59:37;;;;;;;2.83;1.13;;;2.90;99.90;;;;;;5117980;28;20440;-63
2023/12/23 06:02:04;;;;;;;3.00;1.10;;;3.00;99.90;;;;;;5118673;28;20465;-63
2023/12/23 06:04:33;;;;;;;2.27;1.00;;;3.00;99.90;;;;;;5118190;28;20444;-64
2023/12/23 06:07:00;;;;;;;4.60;0.80;;;3.00;99.90;;;;;;5118566;28;20501;-63
2023/12/23 06:09:27;;;;;;;7.20;2.60;;;3.00;99.90;;;;;;5119178;28;20468;-64
2023/12/23 06:11:54;;;;;;;3.97;1.20;;;3.00;99.90;;;;;;5117925;28;20455;-64
2023/12/23 06:14:21;;;;;;;1.20;1.00;;;3.00;99.90;;;;;;5117330;28;20445;-62
2023/12/23 06:16:48;;;;;;;1.57;0.80;;;3.00;99.90;;;;;;5116627;28;20447;-63
2023/12/23 06:19:15;;;;;;;1.67;0.80;;;3.00;99.90;;;;;;5117025;28;20505;-62
2023/12/23 06:21:46;;;;;;;4.80;0.97;;;3.00;99.90;;;;;;5112643;28;20451;-63
2023/12/23 06:24:13;;;;;;;1.53;1.00;;;3.00;99.90;;;;;;5110046;28;20429;-63
2023/12/23 06:26:40;;;;;;;8.20;1.43;;;3.00;99.90;;;;;;5109711;28;20448;-63
2023/12/23 06:29:07;;;;;;;2.93;1.00;;;2.90;99.90;;;;;;5108216;28;20475;-63
2023/12/23 06:31:34;;;;;;;3.93;0.93;;;3.00;99.90;;;;;;5107581;28;20440;-63
2023/12/23 06:34:01;;;;;;;14.43;1.40;;;3.00;99.90;;;;;;5109290;28;20476;-63
2023/12/23 06:36:28;;;;;;;2.20;1.43;;;3.00;99.90;;;;;;5117085;28;20490;-63
2023/12/23 06:38:56;;;;;;;5.83;1.27;;;2.90;99.90;;;;;;5116002;28;20479;-63
2023/12/23 06:41:23;;;;;;;5.03;0.90;;;2.90;99.90;;;;;;5112167;28;20444;-62
2023/12/23 06:43:50;;;;;;;4.60;1.00;;;3.00;99.90;;;;;;5107885;28;20559;-64
2023/12/23 06:46:17;;;;;;;0.93;0.60;;;3.00;99.90;;;;;;5115911;28;20428;-62
2023/12/23 06:48:44;;;;;;;4.93;1.03;;;3.00;99.90;;;;;;5116059;28;20456;-63
2023/12/23 06:51:10;;;;;;;1.03;0.77;;;3.00;99.90;;;;;;5116210;28;20448;-62
2023/12/23 06:53:37;;;;;;;3.33;1.57;;;3.00;99.90;;;;;;5116421;28;20500;-63
2023/12/23 06:56:08;;;;;;;3.37;1.13;;;3.00;99.90;;;;;;5108865;28;20504;-64
2023/12/23 06:58:34;;;;;;;2.73;0.67;;;3.00;99.90;;;;;;5108702;28;20473;-61
2023/12/23 07:01:01;;;;;;;3.73;0.80;;;3.00;99.90;;;;;;5115552;28;20477;-63
2023/12/23 07:03:28;;;;;;;3.50;1.30;;;3.00;99.90;;;;;;5114931;28;20556;-63
2023/12/23 07:05:55;;;;;;;6.30;0.90;;;3.00;99.90;;;;;;5116027;28;20459;-62
2023/12/23 07:08:22;;;;;;;6.33;1.07;;;3.00;99.90;;;;;;5115893;28;20468;-64
2023/12/23 07:10:51;;;;;;;3.63;2.83;;;3.00;99.90;;;;;;5117099;28;20491;-63
2023/12/23 07:13:19;;;;;;;2.23;0.73;;;3.00;99.90;;;;;;5117071;28;20480;-64
2023/12/23 07:15:46;;;;;;;2.13;1.20;;;3.10;99.90;;;;;;5117119;28;20452;-64
2023/12/23 07:18:13;;;;;;;7.10;2.53;;;3.10;99.90;;;;;;5117477;28;20498;-63
2023/12/23 07:20:42;;;;;;;2.33;1.03;;;3.20;99.90;;;;;;5117259;28;20481;-63
2023/12/23 07:23:09;;;;;;;1.57;0.60;;;3.20;99.90;;;;;;5117407;28;20477;-64
2023/12/23 07:25:36;;;;;;;2.30;1.03;;;3.10;99.90;;;;;;5116681;28;20471;-64
2023/12/23 07:28:03;;;;;;;3.37;0.93;;;3.10;99.90;;;;;;5116727;28;20460;-63
2023/12/23 07:30:31;;;;;;;2.60;0.80;;;3.10;99.90;;;;;;5116959;28;20456;-63
2023/12/23 07:32:57;;;;;;;1.87;0.80;;;3.00;99.90;;;;;;5116307;28;20433;-64
2023/12/23 07:35:24;;;;;;;3.03;1.00;;;3.10;99.90;;;;;;5115779;28;20445;-63
2023/12/23 07:37:53;;;;;;;1.90;1.27;;;3.00;99.90;;;;;;5114906;28;20432;-63
2023/12/23 07:40:20;;;;;;;5.10;1.20;;;3.00;99.90;;;;;;5115407;28;20444;-58
2023/12/23 07:42:46;;;;;;;2.70;2.13;;;3.10;99.90;;;;;;5116759;28;20448;-64
2023/12/23 07:45:13;;;;;;;4.17;0.97;;;3.10;99.90;;;;;;5116911;28;20491;-63
2023/12/23 07:47:42;;;;;;;2.90;0.60;;;3.10;99.90;;;;;;5116171;28;20515;-63
2023/12/23 07:50:11;;;;;;;2.10;0.87;;;3.10;99.90;;;;;;5117043;28;20479;-62
2023/12/23 07:52:39;;;;;;;1.83;1.10;;;3.10;99.90;;;;;;5117071;28;20490;-64
2023/12/23 07:55:07;;;;;;;1.63;0.77;;;3.10;99.90;;;;;;5116984;28;20504;-64
2023/12/23 07:57:33;;;;;;;5.43;1.10;;;3.10;99.90;;;;;;5117399;28;20424;-62
2023/12/23 08:00:00;;;;;;;4.87;1.60;;;3.50;99.90;;;;;;5117110;28;20446;-63
2023/12/23 08:02:27;;;;;;;1.10;0.80;;;3.10;99.90;;;;;;5118101;28;20436;-62
2023/12/23 08:04:56;;;;;;;0.90;0.60;;;3.10;99.90;;;;;;5118433;28;20452;-63
2023/12/23 08:07:23;;;;;;;4.53;0.93;;;3.10;99.90;;;;;;5118974;28;20445;-62
2023/12/23 08:09:50;;;;;;;2.70;0.90;;;3.10;99.90;;;;;;5117962;28;20484;-62
2023/12/23 08:12:17;;;;;;;2.60;1.10;;;3.10;99.90;;;;;;5117514;28;20463;-64
2023/12/23 08:14:44;;;;;;;2.90;1.10;;;3.00;99.90;;;;;;5116426;28;20456;-64
2023/12/23 08:17:12;;;;;;;1.37;0.70;;;3.00;99.90;;;;;;5115373;28;21010;-62
2023/12/23 08:19:39;;;;;;;1.40;0.70;;;3.00;99.90;;;;;;5114710;28;20472;-62
2023/12/23 08:22:07;;;;;;;1.10;0.80;;;3.00;99.90;;;;;;5115646;28;20440;-62
2023/12/23 08:24:34;;;;;;;0.90;0.70;;;3.00;99.90;;;;;;5116157;28;20483;-63
2023/12/23 08:27:01;;;;;;;2.30;1.27;;;3.10;99.90;;;;;;5115919;28;20459;-63
2023/12/23 08:29:28;;;;;;;4.10;1.43;;;3.10;99.90;;;;;;5112505;28;20483;-64
2023/12/23 08:31:55;;;;;;;3.93;1.77;;;3.10;99.90;;;;;;5107987;28;20480;-64
2023/12/23 08:34:22;;;;;;;3.77;1.73;;;3.10;99.90;;;;;;5103610;28;20483;-64
2023/12/23 08:36:49;;;;;;;1.63;1.03;;;3.10;99.90;;;;;;5104226;28;20532;-63
2023/12/23 08:39:17;;;;;;;3.00;1.33;;;3.10;99.90;;;;;;5103972;28;20472;-64
2023/12/23 08:41:44;;;;;;;1.10;0.67;;;3.10;99.90;;;;;;5103064;28;20472;-63
2023/12/23 08:44:11;;;;;;;9.80;1.70;;;3.10;99.90;;;;;;5104067;28;20559;-64
2023/12/23 08:46:37;;;;;;;2.90;1.03;;;3.10;99.90;;;;;;5102848;28;20508;-63
2023/12/23 08:49:04;;;;;;;5.03;1.00;;;3.10;99.90;;;;;;5104188;28;20805;-63
2023/12/23 08:51:34;;;;;;;5.03;1.37;;;3.20;99.90;;;;;;5100674;28;20499;-64
2023/12/23 08:54:01;;;;;;;2.67;1.53;;;3.20;99.90;;;;;;5099473;28;20922;-64
2023/12/23 08:56:29;;;;;;;6.90;1.20;;;3.20;99.90;;;;;;5098888;28;20511;-65
2023/12/23 08:58:56;;;;;;;3.43;1.00;;;3.20;99.90;;;;;;5096834;28;20456;-64
2023/12/23 09:01:23;;;;;;;1.83;0.70;;;3.20;99.90;;;;;;5096206;28;20742;-63
2023/12/23 09:03:50;;;;;;;2.97;1.17;;;3.30;99.90;;;;;;5096808;28;20759;-63
2023/12/23 09:06:17;;;;;;;3.63;1.10;;;3.30;99.90;;;;;;5096259;28;20453;-63
2023/12/23 09:08:44;;;;;;;9.70;1.57;;;3.30;99.90;;;;;;5095888;28;20451;-64
2023/12/23 09:11:11;;;;;;;5.93;1.03;;;3.40;99.90;;;;;;5095503;28;20974;-63
2023/12/23 09:13:39;;;;;;;2.67;1.13;;;3.30;99.90;;;;;;5094649;28;20891;-62
2023/12/23 09:16:06;;;;;;;2.00;0.80;;;3.30;99.90;;;;;;5095648;28;20544;-62
2023/12/23 09:18:33;;;;;;;2.30;1.00;;;3.40;99.90;;;;;;5096217;28;20476;-63
2023/12/23 09:21:00;;;;;;;5.60;0.90;;;3.40;99.90;;;;;;5095609;28;20444;-64
2023/12/23 09:23:27;;;;;;;3.93;1.40;;;3.30;99.90;;;;;;5094447;28;20452;-63
2023/12/23 09:25:54;;;;;;;14.10;1.57;;;3.30;99.90;;;;;;5094302;28;21012;-63
2023/12/23 09:28:21;;;;;;;2.03;0.90;;;3.30;99.90;;;;;;5095673;28;20438;-64
2023/12/23 09:30:49;;;;;;;1.63;1.23;;;3.40;99.90;;;;;;5096041;28;20487;-64
2023/12/23 09:33:17;;;;;;;2.30;1.07;;;3.30;99.90;;;;;;5099468;28;20556;-63
2023/12/23 09:35:43;;;;;;;1.80;1.00;;;3.20;99.90;;;;;;5098945;28;20503;-63
2023/12/23 09:38:10;;;;;;;1.33;0.90;;;3.20;99.90;;;;;;5098895;28;20448;-65
2023/12/23 09:40:38;;;;;;;6.10;1.30;;;3.20;99.90;;;;;;5101911;28;20485;-62
2023/12/23 09:43:05;;;;;;;1.63;0.90;;;3.10;99.90;;;;;;5114973;28;20450;-61
2023/12/23 09:45:37;;;;;;;1.27;1.17;;;3.10;99.90;;;;;;5110375;28;20849;-62
2023/12/23 09:48:06;;;;;;;1.90;0.77;;;3.10;99.90;;;;;;5103268;28;20468;-63
2023/12/23 09:50:33;;;;;;;1.47;1.03;;;3.10;99.90;;;;;;5102721;28;20981;-62
2023/12/23 09:53:01;;;;;;;6.83;0.70;;;3.00;99.90;;;;;;5098673;28;20544;-63
2023/12/23 09:55:28;;;;;;;1.30;0.60;;;3.00;99.90;;;;;;5098246;28;20465;-63
2023/12/23 09:57:55;;;;;;;1.73;0.80;;;3.10;99.90;;;;;;5098448;28;20546;-63
2023/12/23 10:00:22;;;;;;;3.47;1.37;;;3.00;99.90;;;;;;5097911;28;20468;-63
2023/12/23 10:02:49;;;;;;;2.00;1.20;;;3.00;99.90;;;;;;5097583;28;20457;-65
2023/12/23 10:05:18;;;;;;;1.67;1.00;;;3.00;99.90;;;;;;5097694;28;21187;-64
2023/12/23 10:07:45;;;;;;;1.70;0.93;;;3.00;99.90;;;;;;5097634;28;20520;-64
2023/12/23 10:10:12;;;;;;;3.23;0.90;;;3.00;99.90;;;;;;5097304;28;20486;-63
2023/12/23 10:12:38;;;;;;;1.60;1.30;;;2.90;99.90;;;;;;5098204;28;20470;-63
2023/12/23 10:15:06;;;;;;;4.03;1.27;;;2.90;99.90;;;;;;5098055;28;20445;-63
2023/12/23 10:17:33;;;;;;;2.07;1.20;;;2.90;99.90;;;;;;5097475;28;20511;-63
2023/12/23 10:20:00;;;;;;;2.40;1.23;;;2.90;99.90;;;;;;5097063;28;20551;-62
2023/12/23 10:22:29;;;;;;;2.17;1.10;;;2.90;99.90;;;;;;5097184;28;20448;-62
2023/12/23 10:24:57;;;;;;;2.90;1.37;;;2.80;99.90;;;;;;5097169;28;20448;-65
2023/12/23 10:27:26;;;;;;;1.47;0.90;;;2.80;99.90;;;;;;5097352;28;20487;-61
2023/12/23 10:29:56;;;;;;;2.77;1.17;;;2.80;99.90;;;;;;5097108;28;20511;-65
2023/12/23 10:32:24;;;;;;;1.10;0.90;;;2.80;99.90;;;;;;5097358;28;20523;-63
2023/12/23 10:34:55;;;;;;;51.17;21.90;;;2.80;99.90;;;;;;5097013;28;20448;-64
2023/12/23 10:37:24;;;;;;;9.30;5.17;;;2.70;99.90;;;;;;5097324;28;20449;-64
2023/12/23 10:40:01;;;;;;;4.03;1.40;;;2.70;99.90;;;;;;5096999;28;20554;-63
2023/12/23 10:42:31;;;;;;;3.13;1.10;;;2.70;99.90;;;;;;5096270;28;20427;-64
2023/12/23 10:44:59;;;;;;;1.67;0.90;;;2.70;99.90;;;;;;5096888;28;20467;-63
2023/12/23 10:47:29;;;;;;;1.80;1.10;;;2.70;99.90;;;;;;5097307;28;20443;-64
2023/12/23 10:49:56;;;;;;;1.60;1.13;;;2.70;99.90;;;;;;5101986;28;20513;-63
2023/12/23 10:52:24;;;;;;;3.20;1.43;;;2.70;99.90;;;;;;5101825;28;20468;-62
2023/12/23 10:54:53;;;;;;;1.57;1.27;;;2.70;99.90;;;;;;5108050;28;20452;-63
2023/12/23 10:57:22;;;;;;;1.40;0.97;;;2.60;99.90;;;;;;5117610;28;20500;-63
2023/12/23 10:59:49;;;;;;;1.80;1.10;;;2.80;99.90;;;;;;5117436;28;20503;-65
2023/12/23 11:02:20;;;;;;;5.00;2.10;;;2.70;99.90;;;;;;5116930;28;20459;-63
2023/12/23 11:04:51;;;;;;;2.00;1.13;;;2.70;99.90;;;;;;5116616;28;20419;-62
2023/12/23 11:07:20;;;;;;;3.03;2.73;;;2.70;99.90;;;;;;5116520;28;20435;-60
2023/12/23 11:09:49;;;;;;;1.60;1.40;;;2.70;99.90;;;;;;5117376;28;20437;-62
2023/12/23 11:12:18;;;;;;;1.50;1.20;;;2.60;99.90;;;;;;5117318;28;20498;-62
2023/12/23 11:14:44;;;;;;;1.53;1.33;;;2.60;99.90;;;;;;5117189;28;20451;-63
2023/12/23 11:17:24;;;;;;;1.37;1.00;;;2.50;99.90;;;;;;5117540;28;20965;-61
2023/12/23 11:19:50;;;;;;;1.00;0.70;;;2.50;99.90;;;;;;5111560;28;20445;-62
2023/12/23 11:22:21;;;;;;;1.23;0.97;;;2.50;99.90;;;;;;5112564;28;20479;-64
2023/12/23 11:24:48;;;;;;;1.50;0.80;;;2.40;99.90;;;;;;5108537;28;20441;-61
2023/12/23 11:27:32;;;;;;;2.73;1.13;;;2.40;99.90;;;;;;5099603;28;20464;-62
2023/12/23 11:30:00;;;;;;;4.80;1.20;;;2.40;99.90;;;;;;5099199;28;20511;-62
2023/12/23 11:32:34;;;;;;;3.10;1.30;;;2.40;99.90;;;;;;5097443;28;20946;-64
2023/12/23 11:35:01;;;;;;;1.40;1.10;;;2.30;99.90;;;;;;5097168;28;20435;-62
2023/12/23 11:37:49;;;;;;;3.33;1.23;;;2.30;99.90;;;;;;5095691;28;20934;-64
2023/12/23 11:40:16;;;;;;;1.17;1.07;;;2.30;99.90;;;;;;5095739;28;20436;-61
2023/12/23 11:42:46;;;;;;;2.53;1.47;;;2.30;99.90;;;;;;5096798;28;20463;-64
2023/12/23 11:45:13;;;;;;;0.83;0.70;;;2.30;99.90;;;;;;5096659;28;20482;-64
2023/12/23 11:47:40;;;;;;;0.93;0.80;;;2.40;99.90;;;;;;5095401;28;20461;-62
2023/12/23 11:50:08;;;;;;;1.10;1.00;;;2.30;99.90;;;;;;5095897;28;20517;-63
2023/12/23 11:52:36;;;;;;;1.17;1.07;;;2.40;99.90;;;;;;5095698;28;20587;-64
2023/12/23 11:55:03;;;;;;;1.50;0.90;;;2.40;99.90;;;;;;5095188;28;20444;-63
2023/12/23 11:57:31;;;;;;;2.10;1.30;;;2.40;99.90;;;;;;5095527;28;20822;-64
2023/12/23 12:00:00;;;;;;;2.33;1.27;;;2.50;99.90;;;;;;5095606;28;20440;-62
2023/12/23 12:02:27;;;;;;;2.20;1.60;;;2.50;99.90;;;;;;5095403;28;20504;-64
2023/12/23 12:04:53;;;;;;;2.13;1.20;;;2.50;99.90;;;;;;5095424;28;20519;-62
2023/12/23 12:07:22;;;;;;;1.30;0.87;;;2.50;99.90;;;;;;5095468;28;20558;-62
2023/12/23 12:09:50;;;;;;;2.10;1.57;;;2.50;99.90;;;;;;5096365;28;20457;-61
2023/12/23 12:12:17;;;;;;;3.33;0.80;;;2.40;99.90;;;;;;5096294;28;20958;-62
2023/12/23 12:14:44;;;;;;;1.37;1.07;;;2.40;99.90;;;;;;5095950;28;20460;-64
2023/12/23 12:17:13;;;;;;;11.43;2.40;;;2.40;99.90;;;;;;5094975;28;21033;-63
2023/12/23 12:19:40;;;;;;;4.13;1.17;;;2.30;99.90;;;;;;5096775;28;20527;-63
2023/12/23 12:22:07;;;;;;;3.70;1.17;;;2.30;99.90;;;;;;5096617;28;20515;-62
2023/12/23 12:24:35;;;;;;;5.70;1.87;;;2.30;99.90;;;;;;5096006;28;20440;-63
2023/12/23 12:27:02;;;;;;;0.90;0.70;;;2.40;99.90;;;;;;5095361;28;20533;-64
2023/12/23 12:29:29;;;;;;;1.77;1.07;;;2.30;99.90;;;;;;5095242;28;20535;-61
2023/12/23 12:31:57;;;;;;;1.70;1.00;;;2.30;99.90;;;;;;5094747;28;21033;-63
2023/12/23 12:34:28;;;;;;;3.30;0.93;;;2.30;99.90;;;;;;5094886;28;20438;-64
2023/12/23 12:36:55;;;;;;;1.83;0.70;;;2.30;99.90;;;;;;5094911;28;20522;-63
2023/12/23 12:39:23;;;;;;;0.90;0.60;;;2.30;99.90;;;;;;5094984;28;20518;-64
2023/12/23 12:41:50;;;;;;;3.03;1.40;;;2.30;99.90;;;;;;5094885;28;20463;-64
2023/12/23 12:44:18;;;;;;;1.30;1.10;;;2.30;99.90;;;;;;5094696;28;20528;-62
2023/12/23 12:46:51;;;;;;;1.30;0.90;;;2.40;99.90;;;;;;5097025;28;20573;-64
2023/12/23 12:49:22;;;;;;;1.40;0.60;;;2.40;99.90;;;;;;5098656;28;20475;-64
2023/12/23 12:51:51;;;;;;;3.13;0.90;;;2.40;99.90;;;;;;5098357;28;20512;-63
2023/12/23 12:54:20;;;;;;;4.60;0.70;;;2.40;99.90;;;;;;5096890;28;20504;-64
2023/12/23 12:56:47;;;;;;;3.43;1.27;;;2.30;99.90;;;;;;5094774;28;20548;-62
2023/12/23 12:59:14;;;;;;;1.57;0.73;;;2.40;99.90;;;;;;5094854;28;20459;-63